sensor_id;sensor_type;location;lat;lon;timestamp;temperature;humidity
37658;DHT22;23500;53.268;8.308;2023-03-12T00:01:46;15.20;62.40
37658;DHT22;23500;53.268;8.308;2023-03-12T00:04:12;15.20;62.40
37658;DHT22;23500;53.268;8.308;2023-03-12T00:06:38;15.10;62.10
37658;DHT22;23500;53.268;8.308;2023-03-12T00:09:03;15.10;61.90
37658;DHT22;23500;53.268;8.308;2023-03-12T00:11:30;15.10;62.00
37658;DHT22;23500;53.268;8.308;2023-03-12T00:13:57;15.10;62.00
37658;DHT22;23500;53.268;8.308;2023-03-12T00:16:25;15.00;62.20
37658;DHT22;23500;53.268;8.308;2023-03-12T00:18:52;15.00;62.10
37658;DHT22;23500;53.268;8.308;2023-03-12T00:21:19;15.00;62.20
37658;DHT22;23500;53.268;8.308;2023-03-12T00:23:46;15.00;61.90
37658;DHT22;23500;53.268;8.308;2023-03-12T00:26:13;15.00;62.30
37658;DHT22;23500;53.268;8.308;2023-03-12T00:28:39;14.90;62.60
37658;DHT22;23500;53.268;8.308;2023-03-12T00:31:37;14.90;62.60
37658;DHT22;23500;53.268;8.308;2023-03-12T00:34:02;14.90;63.20
37658;DHT22;23500;53.268;8.308;2023-03-12T00:36:30;14.80;62.70
37658;DHT22;23500;53.268;8.308;2023-03-12T00:38:57;14.80;62.60
37658;DHT22;23500;53.268;8.308;2023-03-12T00:41:24;14.80;62.70
37658;DHT22;23500;53.268;8.308;2023-03-12T00:43:51;14.80;62.50
37658;DHT22;23500;53.268;8.308;2023-03-12T00:46:17;14.80;62.40
37658;DHT22;23500;53.268;8.308;2023-03-12T00:48:43;14.70;61.90
37658;DHT22;23500;53.268;8.308;2023-03-12T00:51:09;14.70;61.90
37658;DHT22;23500;53.268;8.308;2023-03-12T00:53:35;14.70;61.70
37658;DHT22;23500;53.268;8.308;2023-03-12T00:56:01;14.70;62.00
37658;DHT22;23500;53.268;8.308;2023-03-12T00:58:27;14.60;61.80
37658;DHT22;23500;53.268;8.308;2023-03-12T01:00:53;14.60;62.00
37658;DHT22;23500;53.268;8.308;2023-03-12T01:03:18;14.60;62.40
37658;DHT22;23500;53.268;8.308;2023-03-12T01:05:44;14.60;62.30
37658;DHT22;23500;53.268;8.308;2023-03-12T01:08:11;14.50;62.30
37658;DHT22;23500;53.268;8.308;2023-03-12T01:10:40;14.50;62.60
37658;DHT22;23500;53.268;8.308;2023-03-12T01:13:06;14.50;61.30
37658;DHT22;23500;53.268;8.308;2023-03-12T01:15:32;14.60;61.10
37658;DHT22;23500;53.268;8.308;2023-03-12T01:17:58;14.60;61.30
37658;DHT22;23500;53.268;8.308;2023-03-12T01:20:23;14.80;61.60
37658;DHT22;23500;53.268;8.308;2023-03-12T01:22:50;14.90;61.20
37658;DHT22;23500;53.268;8.308;2023-03-12T01:25:15;15.00;61.00
37658;DHT22;23500;53.268;8.308;2023-03-12T01:27:41;15.10;61.40
37658;DHT22;23500;53.268;8.308;2023-03-12T01:30:07;15.30;61.40
37658;DHT22;23500;53.268;8.308;2023-03-12T01:32:34;15.90;62.90
37658;DHT22;23500;53.268;8.308;2023-03-12T01:34:59;18.40;55.70
37658;DHT22;23500;53.268;8.308;2023-03-12T01:37:26;20.30;51.30
37658;DHT22;23500;53.268;8.308;2023-03-12T01:39:52;21.50;48.50
37658;DHT22;23500;53.268;8.308;2023-03-12T01:42:17;22.40;46.80
37658;DHT22;23500;53.268;8.308;2023-03-12T01:44:54;22.90;45.70
37658;DHT22;23500;53.268;8.308;2023-03-12T01:47:20;23.20;45.00
37658;DHT22;23500;53.268;8.308;2023-03-12T01:49:47;23.50;44.50
37658;DHT22;23500;53.268;8.308;2023-03-12T01:52:16;23.70;44.00
37658;DHT22;23500;53.268;8.308;2023-03-12T01:54:44;23.90;43.60
37658;DHT22;23500;53.268;8.308;2023-03-12T01:57:16;24.20;43.30
37658;DHT22;23500;53.268;8.308;2023-03-12T01:59:49;24.20;43.40
37658;DHT22;23500;53.268;8.308;2023-03-12T02:02:16;23.90;44.00
37658;DHT22;23500;53.268;8.308;2023-03-12T02:04:45;23.50;44.70
37658;DHT22;23500;53.268;8.308;2023-03-12T02:07:15;23.10;45.60
37658;DHT22;23500;53.268;8.308;2023-03-12T02:09:45;22.70;46.50
37658;DHT22;23500;53.268;8.308;2023-03-12T02:12:14;22.30;47.40
37658;DHT22;23500;53.268;8.308;2023-03-12T02:14:40;21.80;48.40
37658;DHT22;23500;53.268;8.308;2023-03-12T02:17:07;21.40;49.30
37658;DHT22;23500;53.268;8.308;2023-03-12T02:19:49;21.10;50.10
37658;DHT22;23500;53.268;8.308;2023-03-12T02:22:15;20.70;50.90
37658;DHT22;23500;53.268;8.308;2023-03-12T02:25:27;20.30;51.80
37658;DHT22;23500;53.268;8.308;2023-03-12T02:27:32;20.00;52.50
37658;DHT22;23500;53.268;8.308;2023-03-12T02:29:59;19.70;52.60
37658;DHT22;23500;53.268;8.308;2023-03-12T02:32:28;19.40;52.50
37658;DHT22;23500;53.268;8.308;2023-03-12T02:34:58;19.10;49.60
37658;DHT22;23500;53.268;8.308;2023-03-12T02:37:24;18.80;49.50
37658;DHT22;23500;53.268;8.308;2023-03-12T02:40:08;18.40;50.00
37658;DHT22;23500;53.268;8.308;2023-03-12T02:42:38;18.10;51.10
37658;DHT22;23500;53.268;8.308;2023-03-12T02:45:04;17.90;50.50
37658;DHT22;23500;53.268;8.308;2023-03-12T02:47:30;17.60;51.40
37658;DHT22;23500;53.268;8.308;2023-03-12T02:49:55;17.40;52.00
37658;DHT22;23500;53.268;8.308;2023-03-12T02:52:21;17.30;53.30
37658;DHT22;23500;53.268;8.308;2023-03-12T02:54:47;18.00;56.80
37658;DHT22;23500;53.268;8.308;2023-03-12T02:57:12;19.30;53.70
37658;DHT22;23500;53.268;8.308;2023-03-12T02:59:38;20.10;51.60
37658;DHT22;23500;53.268;8.308;2023-03-12T03:02:04;20.80;50.30
37658;DHT22;23500;53.268;8.308;2023-03-12T03:04:31;21.10;49.60
37658;DHT22;23500;53.268;8.308;2023-03-12T03:06:59;21.30;49.20
37658;DHT22;23500;53.268;8.308;2023-03-12T03:09:25;21.40;49.00
37658;DHT22;23500;53.268;8.308;2023-03-12T03:11:51;21.30;49.10
37658;DHT22;23500;53.268;8.308;2023-03-12T03:14:17;21.20;49.50
37658;DHT22;23500;53.268;8.308;2023-03-12T03:16:43;21.00;50.00
37658;DHT22;23500;53.268;8.308;2023-03-12T03:19:09;20.80;50.50
37658;DHT22;23500;53.268;8.308;2023-03-12T03:21:36;20.50;51.10
37658;DHT22;23500;53.268;8.308;2023-03-12T03:24:02;20.30;51.60
37658;DHT22;23500;53.268;8.308;2023-03-12T03:26:28;20.00;52.20
37658;DHT22;23500;53.268;8.308;2023-03-12T03:28:54;19.70;52.30
37658;DHT22;23500;53.268;8.308;2023-03-12T03:31:19;19.40;51.40
37658;DHT22;23500;53.268;8.308;2023-03-12T03:33:45;19.10;50.00
37658;DHT22;23500;53.268;8.308;2023-03-12T03:36:11;18.70;48.80
37658;DHT22;23500;53.268;8.308;2023-03-12T03:38:39;18.40;49.60
37658;DHT22;23500;53.268;8.308;2023-03-12T03:41:05;18.20;50.20
37658;DHT22;23500;53.268;8.308;2023-03-12T03:43:31;17.90;50.60
37658;DHT22;23500;53.268;8.308;2023-03-12T03:46:02;17.70;50.80
37658;DHT22;23500;53.268;8.308;2023-03-12T03:48:28;17.50;52.10
37658;DHT22;23500;53.268;8.308;2023-03-12T03:50:53;17.30;52.40
37658;DHT22;23500;53.268;8.308;2023-03-12T03:53:19;17.20;53.20
37658;DHT22;23500;53.268;8.308;2023-03-12T03:55:45;17.10;55.90
37658;DHT22;23500;53.268;8.308;2023-03-12T03:58:11;18.00;56.40
37658;DHT22;23500;53.268;8.308;2023-03-12T04:00:37;19.20;53.80
37658;DHT22;23500;53.268;8.308;2023-03-12T04:03:03;20.00;51.70
37658;DHT22;23500;53.268;8.308;2023-03-12T04:05:29;20.60;50.70
37658;DHT22;23500;53.268;8.308;2023-03-12T04:07:55;20.80;50.10
37658;DHT22;23500;53.268;8.308;2023-03-12T04:10:23;20.90;49.90
37658;DHT22;23500;53.268;8.308;2023-03-12T04:12:49;20.90;50.00
37658;DHT22;23500;53.268;8.308;2023-03-12T04:15:15;20.70;50.30
37658;DHT22;23500;53.268;8.308;2023-03-12T04:17:40;20.60;50.50
37658;DHT22;23500;53.268;8.308;2023-03-12T04:20:06;20.40;51.30
37658;DHT22;23500;53.268;8.308;2023-03-12T04:22:34;20.10;51.90
37658;DHT22;23500;53.268;8.308;2023-03-12T04:25:00;19.80;52.00
37658;DHT22;23500;53.268;8.308;2023-03-12T04:27:26;19.50;52.10
37658;DHT22;23500;53.268;8.308;2023-03-12T04:29:52;19.10;50.20
37658;DHT22;23500;53.268;8.308;2023-03-12T04:32:18;18.80;48.70
37658;DHT22;23500;53.268;8.308;2023-03-12T04:34:43;18.50;49.10
37658;DHT22;23500;53.268;8.308;2023-03-12T04:37:09;18.20;49.40
37658;DHT22;23500;53.268;8.308;2023-03-12T04:39:38;17.90;50.10
37658;DHT22;23500;53.268;8.308;2023-03-12T04:42:04;17.70;50.70
37658;DHT22;23500;53.268;8.308;2023-03-12T04:44:30;17.40;50.80
37658;DHT22;23500;53.268;8.308;2023-03-12T04:46:56;17.30;51.30
37658;DHT22;23500;53.268;8.308;2023-03-12T04:49:21;17.10;52.30
37658;DHT22;23500;53.268;8.308;2023-03-12T04:51:47;17.00;52.70
37658;DHT22;23500;53.268;8.308;2023-03-12T04:54:12;16.90;53.10
37658;DHT22;23500;53.268;8.308;2023-03-12T04:56:38;16.80;53.90
37658;DHT22;23500;53.268;8.308;2023-03-12T04:59:04;16.80;54.70
37658;DHT22;23500;53.268;8.308;2023-03-12T05:01:32;16.80;58.00
37658;DHT22;23500;53.268;8.308;2023-03-12T05:03:58;17.90;56.70
37658;DHT22;23500;53.268;8.308;2023-03-12T05:06:24;19.00;54.20
37658;DHT22;23500;53.268;8.308;2023-03-12T05:08:51;19.70;52.50
37658;DHT22;23500;53.268;8.308;2023-03-12T05:11:17;20.10;51.50
37658;DHT22;23500;53.268;8.308;2023-03-12T05:13:43;20.30;51.10
37658;DHT22;23500;53.268;8.308;2023-03-12T05:16:09;20.40;51.00
37658;DHT22;23500;53.268;8.308;2023-03-12T05:18:36;20.40;50.80
37658;DHT22;23500;53.268;8.308;2023-03-12T05:21:05;20.20;51.20
37658;DHT22;23500;53.268;8.308;2023-03-12T05:23:31;20.00;51.40
37658;DHT22;23500;53.268;8.308;2023-03-12T05:25:57;19.80;51.40
37658;DHT22;23500;53.268;8.308;2023-03-12T05:28:23;19.50;51.90
37658;DHT22;23500;53.268;8.308;2023-03-12T05:30:57;19.10;51.10
37658;DHT22;23500;53.268;8.308;2023-03-12T05:33:23;18.80;50.80
37658;DHT22;23500;53.268;8.308;2023-03-12T05:35:49;18.40;49.50
37658;DHT22;23500;53.268;8.308;2023-03-12T05:38:15;18.20;50.10
37658;DHT22;23500;53.268;8.308;2023-03-12T05:40:40;17.90;50.80
37658;DHT22;23500;53.268;8.308;2023-03-12T05:43:06;17.60;51.50
37658;DHT22;23500;53.268;8.308;2023-03-12T05:45:32;17.40;51.80
37658;DHT22;23500;53.268;8.308;2023-03-12T05:47:58;17.20;52.10
37658;DHT22;23500;53.268;8.308;2023-03-12T05:50:24;17.10;52.40
37658;DHT22;23500;53.268;8.308;2023-03-12T05:52:50;17.00;53.20
37658;DHT22;23500;53.268;8.308;2023-03-12T05:55:16;16.90;53.40
37658;DHT22;23500;53.268;8.308;2023-03-12T05:57:42;16.80;53.90
37658;DHT22;23500;53.268;8.308;2023-03-12T06:00:11;16.80;55.00
37658;DHT22;23500;53.268;8.308;2023-03-12T06:02:37;16.70;55.30
37658;DHT22;23500;53.268;8.308;2023-03-12T06:05:03;16.70;55.40
37658;DHT22;23500;53.268;8.308;2023-03-12T06:07:29;16.80;57.10
37658;DHT22;23500;53.268;8.308;2023-03-12T06:09:55;17.50;57.70
37658;DHT22;23500;53.268;8.308;2023-03-12T06:12:20;18.70;54.80
37658;DHT22;23500;53.268;8.308;2023-03-12T06:14:46;19.50;52.90
37658;DHT22;23500;53.268;8.308;2023-03-12T06:17:12;19.90;52.10
37658;DHT22;23500;53.268;8.308;2023-03-12T06:19:37;20.10;51.70
37658;DHT22;23500;53.268;8.308;2023-03-12T06:22:03;20.10;51.60
37658;DHT22;23500;53.268;8.308;2023-03-12T06:24:29;20.00;51.60
37658;DHT22;23500;53.268;8.308;2023-03-12T06:26:54;20.00;51.90
37658;DHT22;23500;53.268;8.308;2023-03-12T06:29:20;19.70;51.70
37658;DHT22;23500;53.268;8.308;2023-03-12T06:31:45;19.50;51.90
37658;DHT22;23500;53.268;8.308;2023-03-12T06:34:12;19.20;52.70
37658;DHT22;23500;53.268;8.308;2023-03-12T06:36:38;18.80;50.90
37658;DHT22;23500;53.268;8.308;2023-03-12T06:39:04;18.60;50.30
37658;DHT22;23500;53.268;8.308;2023-03-12T06:41:31;18.30;49.70
37658;DHT22;23500;53.268;8.308;2023-03-12T06:43:56;18.00;49.90
37658;DHT22;23500;53.268;8.308;2023-03-12T06:46:23;17.80;50.10
37658;DHT22;23500;53.268;8.308;2023-03-12T06:48:50;17.60;51.40
37658;DHT22;23500;53.268;8.308;2023-03-12T06:51:16;17.40;51.30
37658;DHT22;23500;53.268;8.308;2023-03-12T06:53:42;17.30;51.90
37658;DHT22;23500;53.268;8.308;2023-03-12T06:56:09;17.20;52.50
37658;DHT22;23500;53.268;8.308;2023-03-12T06:58:34;17.10;53.10
37658;DHT22;23500;53.268;8.308;2023-03-12T07:01:00;17.00;53.60
37658;DHT22;23500;53.268;8.308;2023-03-12T07:03:26;17.00;56.60
37658;DHT22;23500;53.268;8.308;2023-03-12T07:05:51;17.90;56.70
37658;DHT22;23500;53.268;8.308;2023-03-12T07:08:19;18.80;54.50
37658;DHT22;23500;53.268;8.308;2023-03-12T07:10:45;19.50;52.60
37658;DHT22;23500;53.268;8.308;2023-03-12T07:13:11;20.10;51.50
37658;DHT22;23500;53.268;8.308;2023-03-12T07:15:36;20.50;50.70
37658;DHT22;23500;53.268;8.308;2023-03-12T07:18:08;20.70;50.10
37658;DHT22;23500;53.268;8.308;2023-03-12T07:20:41;20.70;50.00
37658;DHT22;23500;53.268;8.308;2023-03-12T07:23:08;20.70;50.00
37658;DHT22;23500;53.268;8.308;2023-03-12T07:25:35;20.60;50.20
37658;DHT22;23500;53.268;8.308;2023-03-12T07:28:01;20.50;50.60
37658;DHT22;23500;53.268;8.308;2023-03-12T07:30:27;20.30;51.00
37658;DHT22;23500;53.268;8.308;2023-03-12T07:33:01;20.10;52.00
37658;DHT22;23500;53.268;8.308;2023-03-12T07:35:27;19.90;52.20
37658;DHT22;23500;53.268;8.308;2023-03-12T07:37:53;19.60;52.80
37658;DHT22;23500;53.268;8.308;2023-03-12T07:40:18;19.30;52.30
37658;DHT22;23500;53.268;8.308;2023-03-12T07:42:44;19.00;51.10
37658;DHT22;23500;53.268;8.308;2023-03-12T07:45:10;18.80;49.90
37658;DHT22;23500;53.268;8.308;2023-03-12T07:47:35;18.50;49.50
37658;DHT22;23500;53.268;8.308;2023-03-12T07:50:01;18.30;49.80
37658;DHT22;23500;53.268;8.308;2023-03-12T07:52:27;18.10;49.80
37658;DHT22;23500;53.268;8.308;2023-03-12T07:54:53;17.90;50.10
37658;DHT22;23500;53.268;8.308;2023-03-12T07:57:21;17.70;51.20
37658;DHT22;23500;53.268;8.308;2023-03-12T07:59:46;17.60;52.10
37658;DHT22;23500;53.268;8.308;2023-03-12T08:02:13;17.50;52.90
37658;DHT22;23500;53.268;8.308;2023-03-12T08:04:38;17.50;56.90
37658;DHT22;23500;53.268;8.308;2023-03-12T08:07:04;18.50;55.00
37658;DHT22;23500;53.268;8.308;2023-03-12T08:09:30;19.60;52.70
37658;DHT22;23500;53.268;8.308;2023-03-12T08:11:57;20.30;50.80
37658;DHT22;23500;53.268;8.308;2023-03-12T08:14:23;20.90;49.70
37658;DHT22;23500;53.268;8.308;2023-03-12T08:16:49;21.20;48.90
37658;DHT22;23500;53.268;8.308;2023-03-12T08:19:14;21.40;48.40
37658;DHT22;23500;53.268;8.308;2023-03-12T08:21:40;21.40;48.50
37658;DHT22;23500;53.268;8.308;2023-03-12T08:24:06;21.30;48.50
37658;DHT22;23500;53.268;8.308;2023-03-12T08:26:32;21.10;49.20
37658;DHT22;23500;53.268;8.308;2023-03-12T08:28:57;20.90;49.70
37658;DHT22;23500;53.268;8.308;2023-03-12T08:31:26;20.70;50.30
37658;DHT22;23500;53.268;8.308;2023-03-12T08:33:51;20.50;50.80
37658;DHT22;23500;53.268;8.308;2023-03-12T08:36:17;20.30;51.30
37658;DHT22;23500;53.268;8.308;2023-03-12T08:38:42;20.10;51.70
37658;DHT22;23500;53.268;8.308;2023-03-12T08:41:08;20.00;52.10
37658;DHT22;23500;53.268;8.308;2023-03-12T08:43:34;19.80;52.30
37658;DHT22;23500;53.268;8.308;2023-03-12T08:46:01;19.60;52.60
37658;DHT22;23500;53.268;8.308;2023-03-12T08:48:29;19.40;52.80
37658;DHT22;23500;53.268;8.308;2023-03-12T08:50:56;19.20;52.70
37658;DHT22;23500;53.268;8.308;2023-03-12T08:53:22;19.00;53.00
37658;DHT22;23500;53.268;8.308;2023-03-12T08:55:50;19.00;53.40
37658;DHT22;23500;53.268;8.308;2023-03-12T08:58:16;19.20;53.20
37658;DHT22;23500;53.268;8.308;2023-03-12T09:00:41;19.40;52.70
37658;DHT22;23500;53.268;8.308;2023-03-12T09:03:08;19.60;52.50
37658;DHT22;23500;53.268;8.308;2023-03-12T09:05:36;19.80;52.10
37658;DHT22;23500;53.268;8.308;2023-03-12T09:08:02;20.10;51.50
37658;DHT22;23500;53.268;8.308;2023-03-12T09:10:28;20.40;50.70
37658;DHT22;23500;53.268;8.308;2023-03-12T09:12:53;20.80;50.00
37658;DHT22;23500;53.268;8.308;2023-03-12T09:15:19;21.10;49.50
37658;DHT22;23500;53.268;8.308;2023-03-12T09:17:45;21.30;49.10
37658;DHT22;23500;53.268;8.308;2023-03-12T09:20:12;21.40;48.60
37658;DHT22;23500;53.268;8.308;2023-03-12T09:22:39;21.50;48.50
37658;DHT22;23500;53.268;8.308;2023-03-12T09:25:08;21.50;48.50
37658;DHT22;23500;53.268;8.308;2023-03-12T09:27:39;21.40;48.50
37658;DHT22;23500;53.268;8.308;2023-03-12T09:30:07;21.30;49.00
37658;DHT22;23500;53.268;8.308;2023-03-12T09:32:33;21.20;49.10
37658;DHT22;23500;53.268;8.308;2023-03-12T09:34:59;21.10;49.60
37658;DHT22;23500;53.268;8.308;2023-03-12T09:37:25;20.80;50.00
37658;DHT22;23500;53.268;8.308;2023-03-12T09:39:51;20.70;50.40
37658;DHT22;23500;53.268;8.308;2023-03-12T09:42:29;20.50;50.80
37658;DHT22;23500;53.268;8.308;2023-03-12T09:44:59;20.30;51.20
37658;DHT22;23500;53.268;8.308;2023-03-12T09:47:29;20.10;51.60
37658;DHT22;23500;53.268;8.308;2023-03-12T09:52:43;19.80;52.00
37658;DHT22;23500;53.268;8.308;2023-03-12T09:55:14;19.60;52.40
37658;DHT22;23500;53.268;8.308;2023-03-12T09:57:41;19.50;52.50
37658;DHT22;23500;53.268;8.308;2023-03-12T10:00:13;19.40;52.90
37658;DHT22;23500;53.268;8.308;2023-03-12T10:02:53;19.40;52.90
37658;DHT22;23500;53.268;8.308;2023-03-12T10:11:09;19.90;52.00
37658;DHT22;23500;53.268;8.308;2023-03-12T10:26:43;21.60;48.50
37658;DHT22;23500;53.268;8.308;2023-03-12T10:29:29;21.60;48.40
37658;DHT22;23500;53.268;8.308;2023-03-12T10:32:16;21.50;48.50
37658;DHT22;23500;53.268;8.308;2023-03-12T10:34:50;21.50;48.80
37658;DHT22;23500;53.268;8.308;2023-03-12T10:37:40;21.30;49.00
37658;DHT22;23500;53.268;8.308;2023-03-12T10:40:15;21.20;49.30
37658;DHT22;23500;53.268;8.308;2023-03-12T10:42:41;21.00;50.00
37658;DHT22;23500;53.268;8.308;2023-03-12T10:50:28;20.50;51.10
37658;DHT22;23500;53.268;8.308;2023-03-12T10:53:23;20.30;51.40
37658;DHT22;23500;53.268;8.308;2023-03-12T10:58:38;19.90;51.90
37658;DHT22;23500;53.268;8.308;2023-03-12T11:01:10;19.80;52.70
37658;DHT22;23500;53.268;8.308;2023-03-12T11:03:41;19.70;52.90
37658;DHT22;23500;53.268;8.308;2023-03-12T11:06:08;19.70;52.80
37658;DHT22;23500;53.268;8.308;2023-03-12T11:08:40;19.80;52.30
37658;DHT22;23500;53.268;8.308;2023-03-12T11:11:05;19.90;52.30
37658;DHT22;23500;53.268;8.308;2023-03-12T11:16:23;20.30;51.40
37658;DHT22;23500;53.268;8.308;2023-03-12T11:18:58;20.50;51.00
37658;DHT22;23500;53.268;8.308;2023-03-12T11:21:30;20.80;50.30
37658;DHT22;23500;53.268;8.308;2023-03-12T11:29:30;21.50;48.80
37658;DHT22;23500;53.268;8.308;2023-03-12T11:34:41;21.70;48.50
37658;DHT22;23500;53.268;8.308;2023-03-12T11:37:14;21.50;48.70
37658;DHT22;23500;53.268;8.308;2023-03-12T11:50:38;20.50;51.10
37658;DHT22;23500;53.268;8.308;2023-03-12T11:56:19;20.10;52.00
37658;DHT22;23500;53.268;8.308;2023-03-12T12:01:54;19.70;52.70
37658;DHT22;23500;53.268;8.308;2023-03-12T12:04:37;19.50;52.70
37658;DHT22;23500;53.268;8.308;2023-03-12T12:09:54;19.60;52.40
37658;DHT22;23500;53.268;8.308;2023-03-12T12:26:19;21.10;49.40
37658;DHT22;23500;53.268;8.308;2023-03-12T12:29:16;21.50;48.70
37658;DHT22;23500;53.268;8.308;2023-03-12T12:32:03;21.70;48.20
37658;DHT22;23500;53.268;8.308;2023-03-12T12:39:44;21.50;48.80
37658;DHT22;23500;53.268;8.308;2023-03-12T12:42:17;21.30;49.20
37658;DHT22;23500;53.268;8.308;2023-03-12T12:44:51;21.10;49.70
37658;DHT22;23500;53.268;8.308;2023-03-12T12:47:36;20.90;50.90
37658;DHT22;23500;53.268;8.308;2023-03-12T12:50:05;20.60;50.70
37658;DHT22;23500;53.268;8.308;2023-03-12T12:52:32;20.40;51.10
37658;DHT22;23500;53.268;8.308;2023-03-12T12:55:20;20.30;51.60
37658;DHT22;23500;53.268;8.308;2023-03-12T12:57:55;20.10;51.90
37658;DHT22;23500;53.268;8.308;2023-03-12T13:00:42;19.80;51.90
37658;DHT22;23500;53.268;8.308;2023-03-12T13:03:21;19.60;52.50
37658;DHT22;23500;53.268;8.308;2023-03-12T13:05:57;19.50;53.00
37658;DHT22;23500;53.268;8.308;2023-03-12T13:10:58;19.70;52.50
37658;DHT22;23500;53.268;8.308;2023-03-12T13:13:28;19.90;52.10
37658;DHT22;23500;53.268;8.308;2023-03-12T13:18:55;20.40;51.10
37658;DHT22;23500;53.268;8.308;2023-03-12T13:21:36;20.60;50.60
37658;DHT22;23500;53.268;8.308;2023-03-12T13:27:35;21.20;49.10
37658;DHT22;23500;53.268;8.308;2023-03-12T13:30:44;21.50;48.50
37658;DHT22;23500;53.268;8.308;2023-03-12T13:33:12;21.70;48.10
37658;DHT22;23500;53.268;8.308;2023-03-12T13:35:39;21.70;48.30
37658;DHT22;23500;53.268;8.308;2023-03-12T13:38:17;21.60;48.40
37658;DHT22;23500;53.268;8.308;2023-03-12T13:40:58;21.40;48.80
37658;DHT22;23500;53.268;8.308;2023-03-12T13:48:33;20.80;50.40
37658;DHT22;23500;53.268;8.308;2023-03-12T13:51:20;20.60;50.70
37658;DHT22;23500;53.268;8.308;2023-03-12T13:53:59;20.30;51.30
37658;DHT22;23500;53.268;8.308;2023-03-12T13:56:28;20.10;51.70
37658;DHT22;23500;53.268;8.308;2023-03-12T13:58:56;19.90;51.90
37658;DHT22;23500;53.268;8.308;2023-03-12T14:01:28;19.70;52.40
37658;DHT22;23500;53.268;8.308;2023-03-12T14:04:01;19.50;52.90
37658;DHT22;23500;53.268;8.308;2023-03-12T14:06:31;19.30;52.90
37658;DHT22;23500;53.268;8.308;2023-03-12T14:14:38;19.00;54.10
37658;DHT22;23500;53.268;8.308;2023-03-12T14:17:22;19.20;53.60
37658;DHT22;23500;53.268;8.308;2023-03-12T14:20:03;19.60;52.90
37658;DHT22;23500;53.268;8.308;2023-03-12T14:22:35;20.10;51.80
37658;DHT22;23500;53.268;8.308;2023-03-12T14:27:56;21.30;48.90
37658;DHT22;23500;53.268;8.308;2023-03-12T14:30:32;21.90;47.70
37658;DHT22;23500;53.268;8.308;2023-03-12T14:33:03;22.20;47.20
37658;DHT22;23500;53.268;8.308;2023-03-12T14:35:40;22.30;47.00
37658;DHT22;23500;53.268;8.308;2023-03-12T14:38:30;22.30;47.00
37658;DHT22;23500;53.268;8.308;2023-03-12T14:41:05;22.10;47.30
37658;DHT22;23500;53.268;8.308;2023-03-12T14:43:38;21.90;47.90
37658;DHT22;23500;53.268;8.308;2023-03-12T14:46:13;21.60;48.50
37658;DHT22;23500;53.268;8.308;2023-03-12T14:48:39;21.30;49.10
37658;DHT22;23500;53.268;8.308;2023-03-12T14:51:06;21.10;49.70
37658;DHT22;23500;53.268;8.308;2023-03-12T14:53:36;20.80;50.20
37658;DHT22;23500;53.268;8.308;2023-03-12T14:58:47;20.40;51.20
37658;DHT22;23500;53.268;8.308;2023-03-12T15:01:18;20.10;51.80
37658;DHT22;23500;53.268;8.308;2023-03-12T15:03:50;19.90;51.80
37658;DHT22;23500;53.268;8.308;2023-03-12T15:06:27;19.70;52.40
37658;DHT22;23500;53.268;8.308;2023-03-12T15:08:54;19.50;53.30
37658;DHT22;23500;53.268;8.308;2023-03-12T15:11:22;19.30;53.60
37658;DHT22;23500;53.268;8.308;2023-03-12T15:13:50;19.30;53.90
37658;DHT22;23500;53.268;8.308;2023-03-12T15:16:17;19.40;53.60
37658;DHT22;23500;53.268;8.308;2023-03-12T15:18:43;19.70;53.00
37658;DHT22;23500;53.268;8.308;2023-03-12T15:21:09;20.00;52.20
37658;DHT22;23500;53.268;8.308;2023-03-12T15:23:36;20.50;51.00
37658;DHT22;23500;53.268;8.308;2023-03-12T15:28:41;21.60;48.60
37658;DHT22;23500;53.268;8.308;2023-03-12T15:31:09;21.80;48.30
37658;DHT22;23500;53.268;8.308;2023-03-12T15:33:36;21.80;48.20
37658;DHT22;23500;53.268;8.308;2023-03-12T15:36:21;21.80;48.30
37658;DHT22;23500;53.268;8.308;2023-03-12T15:39:12;21.70;48.40
37658;DHT22;23500;53.268;8.308;2023-03-12T15:41:46;21.60;48.70
37658;DHT22;23500;53.268;8.308;2023-03-12T15:46:46;21.20;49.60
37658;DHT22;23500;53.268;8.308;2023-03-12T15:49:37;21.10;50.00
37658;DHT22;23500;53.268;8.308;2023-03-12T15:52:04;20.90;50.40
37658;DHT22;23500;53.268;8.308;2023-03-12T15:54:31;20.70;50.90
37658;DHT22;23500;53.268;8.308;2023-03-12T15:57:20;20.50;51.40
37658;DHT22;23500;53.268;8.308;2023-03-12T16:02:53;20.10;52.30
37658;DHT22;23500;53.268;8.308;2023-03-12T16:05:25;19.80;52.80
37658;DHT22;23500;53.268;8.308;2023-03-12T16:07:51;19.60;53.30
37658;DHT22;23500;53.268;8.308;2023-03-12T16:10:19;19.40;53.80
37658;DHT22;23500;53.268;8.308;2023-03-12T16:12:48;19.30;54.00
37658;DHT22;23500;53.268;8.308;2023-03-12T16:15:32;19.20;53.90
37658;DHT22;23500;53.268;8.308;2023-03-12T16:17:58;19.30;53.90
37658;DHT22;23500;53.268;8.308;2023-03-12T16:20:24;19.50;53.60
37658;DHT22;23500;53.268;8.308;2023-03-12T16:22:50;19.60;53.10
37658;DHT22;23500;53.268;8.308;2023-03-12T16:25:16;19.80;52.70
37658;DHT22;23500;53.268;8.308;2023-03-12T16:27:49;20.00;52.30
37658;DHT22;23500;53.268;8.308;2023-03-12T16:30:28;20.30;51.70
37658;DHT22;23500;53.268;8.308;2023-03-12T16:32:54;20.60;50.80
37658;DHT22;23500;53.268;8.308;2023-03-12T16:35:20;20.70;50.70
37658;DHT22;23500;53.268;8.308;2023-03-12T16:37:46;20.70;50.80
37658;DHT22;23500;53.268;8.308;2023-03-12T16:40:13;20.60;50.90
37658;DHT22;23500;53.268;8.308;2023-03-12T16:42:43;20.60;51.20
37658;DHT22;23500;53.268;8.308;2023-03-12T16:45:11;20.60;51.10
37658;DHT22;23500;53.268;8.308;2023-03-12T16:47:39;20.60;51.10
37658;DHT22;23500;53.268;8.308;2023-03-12T16:50:21;20.60;50.90
37658;DHT22;23500;53.268;8.308;2023-03-12T16:52:48;20.70;50.80
37658;DHT22;23500;53.268;8.308;2023-03-12T16:55:19;20.60;50.90
37658;DHT22;23500;53.268;8.308;2023-03-12T16:57:54;20.60;51.00
37658;DHT22;23500;53.268;8.308;2023-03-12T17:00:23;20.60;51.20
37658;DHT22;23500;53.268;8.308;2023-03-12T17:02:51;20.40;51.50
37658;DHT22;23500;53.268;8.308;2023-03-12T17:05:19;20.30;51.90
37658;DHT22;23500;53.268;8.308;2023-03-12T17:07:45;20.10;52.20
37658;DHT22;23500;53.268;8.308;2023-03-12T17:10:13;20.00;52.70
37658;DHT22;23500;53.268;8.308;2023-03-12T17:12:40;19.80;53.10
37658;DHT22;23500;53.268;8.308;2023-03-12T17:15:12;19.60;53.50
37658;DHT22;23500;53.268;8.308;2023-03-12T17:17:40;19.40;54.00
37658;DHT22;23500;53.268;8.308;2023-03-12T17:20:06;19.30;54.30
37658;DHT22;23500;53.268;8.308;2023-03-12T17:22:35;19.10;54.50
37658;DHT22;23500;53.268;8.308;2023-03-12T17:25:01;19.10;54.60
37658;DHT22;23500;53.268;8.308;2023-03-12T17:27:27;19.20;54.50
37658;DHT22;23500;53.268;8.308;2023-03-12T17:29:52;19.40;54.00
37658;DHT22;23500;53.268;8.308;2023-03-12T17:32:18;19.50;53.60
37658;DHT22;23500;53.268;8.308;2023-03-12T17:34:43;19.80;53.10